sensor_id;sensor_type;location;lat;lon;timestamp;P1;durP1;ratioP1;P2;durP2;ratioP2
84303;SDS011;74469;52.520;16.998;2024-02-23T00:00:35;6.20;;;4.10;;
84303;SDS011;74469;52.520;16.998;2024-02-23T00:06:17;8.30;;;4.30;;
84303;SDS011;74469;52.520;16.998;2024-02-23T00:11:20;6.10;;;4.10;;
84303;SDS011;74469;52.520;16.998;2024-02-23T00:16:23;8.30;;;4.20;;
84303;SDS011;74469;52.520;16.998;2024-02-23T00:21:26;6.70;;;3.90;;
84303;SDS011;74469;52.520;16.998;2024-02-23T00:26:29;7.80;;;4.30;;
84303;SDS011;74469;52.520;16.998;2024-02-23T00:31:32;6.50;;;3.70;;
84303;SDS011;74469;52.520;16.998;2024-02-23T00:36:34;5.60;;;3.60;;
84303;SDS011;74469;52.520;16.998;2024-02-23T00:41:37;3.80;;;2.70;;
84303;SDS011;74469;52.520;16.998;2024-02-23T00:46:40;6.50;;;3.50;;
84303;SDS011;74469;52.520;16.998;2024-02-23T00:51:43;4.50;;;2.90;;
84303;SDS011;74469;52.520;16.998;2024-02-23T00:56:45;4.40;;;3.30;;
84303;SDS011;74469;52.520;16.998;2024-02-23T01:01:48;5.10;;;3.30;;
84303;SDS011;74469;52.520;16.998;2024-02-23T01:06:51;3.50;;;3.10;;
84303;SDS011;74469;52.520;16.998;2024-02-23T01:11:53;3.90;;;2.20;;
84303;SDS011;74469;52.520;16.998;2024-02-23T01:16:56;4.40;;;3.20;;
84303;SDS011;74469;52.520;16.998;2024-02-23T01:21:59;4.10;;;2.80;;
84303;SDS011;74469;52.520;16.998;2024-02-23T01:27:02;4.90;;;3.30;;
84303;SDS011;74469;52.520;16.998;2024-02-23T01:32:05;5.40;;;2.40;;
84303;SDS011;74469;52.520;16.998;2024-02-23T01:37:08;4.70;;;2.60;;
84303;SDS011;74469;52.520;16.998;2024-02-23T01:42:11;4.50;;;2.70;;
84303;SDS011;74469;52.520;16.998;2024-02-23T01:47:14;3.60;;;2.00;;
84303;SDS011;74469;52.520;16.998;2024-02-23T02:58:03;2.80;;;1.30;;
84303;SDS011;74469;52.520;16.998;2024-02-23T03:03:06;2.90;;;1.60;;
84303;SDS011;74469;52.520;16.998;2024-02-23T03:08:09;2.00;;;1.60;;
84303;SDS011;74469;52.520;16.998;2024-02-23T03:13:12;2.80;;;1.60;;
84303;SDS011;74469;52.520;16.998;2024-02-23T03:18:14;3.60;;;2.10;;
84303;SDS011;74469;52.520;16.998;2024-02-23T03:23:17;2.60;;;1.70;;
84303;SDS011;74469;52.520;16.998;2024-02-23T03:28:20;2.20;;;1.40;;
84303;SDS011;74469;52.520;16.998;2024-02-23T03:33:23;3.60;;;1.80;;
84303;SDS011;74469;52.520;16.998;2024-02-23T03:38:25;2.10;;;1.90;;
84303;SDS011;74469;52.520;16.998;2024-02-23T03:43:28;1.30;;;1.20;;
84303;SDS011;74469;52.520;16.998;2024-02-23T03:48:31;1.10;;;0.90;;
84303;SDS011;74469;52.520;16.998;2024-02-23T03:53:34;2.90;;;1.30;;
84303;SDS011;74469;52.520;16.998;2024-02-23T03:58:37;1.00;;;0.90;;
84303;SDS011;74469;52.520;16.998;2024-02-23T04:03:40;2.00;;;1.40;;
84303;SDS011;74469;52.520;16.998;2024-02-23T04:08:42;1.40;;;1.30;;
84303;SDS011;74469;52.520;16.998;2024-02-23T04:13:45;1.30;;;1.20;;
84303;SDS011;74469;52.520;16.998;2024-02-23T04:18:48;3.60;;;1.20;;
84303;SDS011;74469;52.520;16.998;2024-02-23T04:23:50;2.40;;;1.00;;
84303;SDS011;74469;52.520;16.998;2024-02-23T04:28:53;1.40;;;0.70;;
84303;SDS011;74469;52.520;16.998;2024-02-23T04:33:56;3.10;;;1.00;;
84303;SDS011;74469;52.520;16.998;2024-02-23T04:38:59;2.00;;;1.10;;
84303;SDS011;74469;52.520;16.998;2024-02-23T04:44:02;1.90;;;0.90;;
84303;SDS011;74469;52.520;16.998;2024-02-23T04:49:04;1.60;;;1.20;;
84303;SDS011;74469;52.520;16.998;2024-02-23T04:54:07;1.10;;;1.00;;
84303;SDS011;74469;52.520;16.998;2024-02-23T04:59:09;1.30;;;0.80;;
84303;SDS011;74469;52.520;16.998;2024-02-23T05:04:12;0.80;;;0.80;;
84303;SDS011;74469;52.520;16.998;2024-02-23T05:09:15;1.80;;;1.20;;
84303;SDS011;74469;52.520;16.998;2024-02-23T05:14:18;1.00;;;0.70;;
84303;SDS011;74469;52.520;16.998;2024-02-23T05:19:20;1.00;;;0.60;;
84303;SDS011;74469;52.520;16.998;2024-02-23T05:24:23;1.90;;;1.00;;
84303;SDS011;74469;52.520;16.998;2024-02-23T05:29:26;1.60;;;1.20;;
84303;SDS011;74469;52.520;16.998;2024-02-23T05:34:28;0.90;;;0.70;;
84303;SDS011;74469;52.520;16.998;2024-02-23T05:39:32;1.50;;;0.90;;
84303;SDS011;74469;52.520;16.998;2024-02-23T05:44:35;1.00;;;0.80;;
84303;SDS011;74469;52.520;16.998;2024-02-23T05:49:37;1.70;;;0.70;;
84303;SDS011;74469;52.520;16.998;2024-02-23T05:54:40;2.70;;;1.10;;
84303;SDS011;74469;52.520;16.998;2024-02-23T05:59:43;5.80;;;3.60;;
84303;SDS011;74469;52.520;16.998;2024-02-23T06:04:46;3.00;;;1.60;;
84303;SDS011;74469;52.520;16.998;2024-02-23T06:09:48;2.20;;;1.80;;
84303;SDS011;74469;52.520;16.998;2024-02-23T06:14:51;3.30;;;2.30;;
84303;SDS011;74469;52.520;16.998;2024-02-23T06:19:54;2.90;;;1.50;;
84303;SDS011;74469;52.520;16.998;2024-02-23T06:24:59;2.60;;;1.70;;
84303;SDS011;74469;52.520;16.998;2024-02-23T06:30:03;2.00;;;1.70;;
84303;SDS011;74469;52.520;16.998;2024-02-23T06:35:07;1.30;;;1.00;;
84303;SDS011;74469;52.520;16.998;2024-02-23T06:40:11;2.40;;;1.20;;
84303;SDS011;74469;52.520;16.998;2024-02-23T06:45:13;1.30;;;0.90;;
84303;SDS011;74469;52.520;16.998;2024-02-23T06:50:16;1.80;;;0.90;;
84303;SDS011;74469;52.520;16.998;2024-02-23T06:55:19;1.20;;;1.10;;
84303;SDS011;74469;52.520;16.998;2024-02-23T07:05:35;1.00;;;0.80;;
84303;SDS011;74469;52.520;16.998;2024-02-23T07:10:38;4.20;;;2.20;;
84303;SDS011;74469;52.520;16.998;2024-02-23T07:15:40;1.50;;;1.30;;
84303;SDS011;74469;52.520;16.998;2024-02-23T07:20:43;1.40;;;0.80;;
84303;SDS011;74469;52.520;16.998;2024-02-23T07:25:46;1.60;;;1.00;;
84303;SDS011;74469;52.520;16.998;2024-02-23T07:30:50;2.70;;;2.40;;
84303;SDS011;74469;52.520;16.998;2024-02-23T07:35:53;1.80;;;0.80;;
84303;SDS011;74469;52.520;16.998;2024-02-23T07:40:56;4.70;;;2.00;;
84303;SDS011;74469;52.520;16.998;2024-02-23T07:45:58;0.60;;;0.60;;
84303;SDS011;74469;52.520;16.998;2024-02-23T07:51:02;0.70;;;0.60;;
84303;SDS011;74469;52.520;16.998;2024-02-23T07:56:07;2.60;;;0.50;;
84303;SDS011;74469;52.520;16.998;2024-02-23T08:01:10;2.40;;;0.50;;
84303;SDS011;74469;52.520;16.998;2024-02-23T08:06:13;0.40;;;0.40;;
84303;SDS011;74469;52.520;16.998;2024-02-23T08:11:15;0.30;;;0.30;;
84303;SDS011;74469;52.520;16.998;2024-02-23T08:16:18;0.90;;;0.50;;
84303;SDS011;74469;52.520;16.998;2024-02-23T08:21:21;0.40;;;0.30;;
84303;SDS011;74469;52.520;16.998;2024-02-23T08:26:24;0.50;;;0.40;;
84303;SDS011;74469;52.520;16.998;2024-02-23T08:31:26;0.70;;;0.40;;
84303;SDS011;74469;52.520;16.998;2024-02-23T08:36:29;0.30;;;0.20;;
84303;SDS011;74469;52.520;16.998;2024-02-23T08:41:31;3.20;;;0.60;;
84303;SDS011;74469;52.520;16.998;2024-02-23T08:46:34;1.00;;;0.30;;
84303;SDS011;74469;52.520;16.998;2024-02-23T08:51:37;0.90;;;0.40;;
84303;SDS011;74469;52.520;16.998;2024-02-23T08:56:40;0.60;;;0.30;;
84303;SDS011;74469;52.520;16.998;2024-02-23T09:06:58;1.80;;;0.50;;
84303;SDS011;74469;52.520;16.998;2024-02-23T09:12:01;1.70;;;0.50;;
84303;SDS011;74469;52.520;16.998;2024-02-23T09:17:04;0.50;;;0.50;;
84303;SDS011;74469;52.520;16.998;2024-02-23T09:22:08;1.10;;;0.50;;
84303;SDS011;74469;52.520;16.998;2024-02-23T09:27:11;1.50;;;0.60;;
84303;SDS011;74469;52.520;16.998;2024-02-23T09:32:13;1.00;;;0.90;;
84303;SDS011;74469;52.520;16.998;2024-02-23T09:37:16;1.80;;;0.60;;
84303;SDS011;74469;52.520;16.998;2024-02-23T09:42:55;1.20;;;0.30;;
84303;SDS011;74469;52.520;16.998;2024-02-23T09:47:59;1.00;;;0.40;;
84303;SDS011;74469;52.520;16.998;2024-02-23T09:53:04;1.10;;;0.40;;
84303;SDS011;74469;52.520;16.998;2024-02-23T09:58:07;0.50;;;0.20;;
84303;SDS011;74469;52.520;16.998;2024-02-23T10:03:10;0.30;;;0.30;;
84303;SDS011;74469;52.520;16.998;2024-02-23T10:08:13;0.30;;;0.30;;
84303;SDS011;74469;52.520;16.998;2024-02-23T10:13:19;0.70;;;0.30;;
84303;SDS011;74469;52.520;16.998;2024-02-23T10:18:23;2.30;;;0.30;;
84303;SDS011;74469;52.520;16.998;2024-02-23T10:23:26;0.90;;;0.70;;
84303;SDS011;74469;52.520;16.998;2024-02-23T10:28:28;0.20;;;0.20;;
84303;SDS011;74469;52.520;16.998;2024-02-23T10:33:31;3.20;;;0.40;;
84303;SDS011;74469;52.520;16.998;2024-02-23T10:38:34;0.50;;;0.20;;
84303;SDS011;74469;52.520;16.998;2024-02-23T10:43:44;0.70;;;0.70;;
84303;SDS011;74469;52.520;16.998;2024-02-23T10:48:48;1.20;;;0.30;;
84303;SDS011;74469;52.520;16.998;2024-02-23T10:53:52;1.20;;;0.90;;
84303;SDS011;74469;52.520;16.998;2024-02-23T10:58:55;0.50;;;0.40;;
84303;SDS011;74469;52.520;16.998;2024-02-23T11:09:39;1.00;;;0.50;;
84303;SDS011;74469;52.520;16.998;2024-02-23T11:14:42;0.50;;;0.40;;
84303;SDS011;74469;52.520;16.998;2024-02-23T11:19:48;1.20;;;0.40;;
84303;SDS011;74469;52.520;16.998;2024-02-23T11:24:53;0.90;;;0.40;;
84303;SDS011;74469;52.520;16.998;2024-02-23T11:30:03;0.40;;;0.40;;
84303;SDS011;74469;52.520;16.998;2024-02-23T11:35:10;1.20;;;0.50;;
84303;SDS011;74469;52.520;16.998;2024-02-23T11:40:13;0.50;;;0.40;;
84303;SDS011;74469;52.520;16.998;2024-02-23T11:45:16;0.30;;;0.30;;
84303;SDS011;74469;52.520;16.998;2024-02-23T11:50:19;0.30;;;0.30;;
84303;SDS011;74469;52.520;16.998;2024-02-23T11:55:23;0.70;;;0.30;;
84303;SDS011;74469;52.520;16.998;2024-02-23T12:00:25;0.90;;;0.40;;
84303;SDS011;74469;52.520;16.998;2024-02-23T12:05:28;1.30;;;0.70;;
84303;SDS011;74469;52.520;16.998;2024-02-23T12:10:31;1.30;;;0.50;;
84303;SDS011;74469;52.520;16.998;2024-02-23T12:15:34;1.30;;;0.30;;
84303;SDS011;74469;52.520;16.998;2024-02-23T12:20:36;0.40;;;0.40;;
84303;SDS011;74469;52.520;16.998;2024-02-23T12:25:39;0.70;;;0.20;;
84303;SDS011;74469;52.520;16.998;2024-02-23T12:30:42;0.80;;;0.70;;
84303;SDS011;74469;52.520;16.998;2024-02-23T12:35:44;2.30;;;0.60;;
84303;SDS011;74469;52.520;16.998;2024-02-23T12:40:47;1.10;;;0.50;;
84303;SDS011;74469;52.520;16.998;2024-02-23T12:45:50;0.70;;;0.60;;
84303;SDS011;74469;52.520;16.998;2024-02-23T12:50:54;1.40;;;0.80;;
84303;SDS011;74469;52.520;16.998;2024-02-23T12:55:57;0.60;;;0.50;;
84303;SDS011;74469;52.520;16.998;2024-02-23T13:01:00;2.80;;;1.00;;
84303;SDS011;74469;52.520;16.998;2024-02-23T13:11:44;6.40;;;4.00;;
84303;SDS011;74469;52.520;16.998;2024-02-23T13:16:48;22.80;;;10.10;;
84303;SDS011;74469;52.520;16.998;2024-02-23T13:21:51;7.30;;;4.30;;
84303;SDS011;74469;52.520;16.998;2024-02-23T13:26:54;10.10;;;4.40;;
84303;SDS011;74469;52.520;16.998;2024-02-23T13:31:57;2.30;;;0.70;;
84303;SDS011;74469;52.520;16.998;2024-02-23T13:37:00;1.90;;;1.50;;
84303;SDS011;74469;52.520;16.998;2024-02-23T13:42:03;2.60;;;1.60;;
84303;SDS011;74469;52.520;16.998;2024-02-23T13:47:07;0.50;;;0.50;;
84303;SDS011;74469;52.520;16.998;2024-02-23T13:52:10;2.00;;;0.60;;
84303;SDS011;74469;52.520;16.998;2024-02-23T13:57:13;0.70;;;0.40;;
84303;SDS011;74469;52.520;16.998;2024-02-23T14:02:16;1.90;;;0.90;;
84303;SDS011;74469;52.520;16.998;2024-02-23T14:07:21;2.40;;;0.30;;
84303;SDS011;74469;52.520;16.998;2024-02-23T14:12:23;0.60;;;0.50;;
84303;SDS011;74469;52.520;16.998;2024-02-23T14:17:26;0.70;;;0.50;;
84303;SDS011;74469;52.520;16.998;2024-02-23T14:22:29;0.70;;;0.40;;
84303;SDS011;74469;52.520;16.998;2024-02-23T14:27:32;0.70;;;0.50;;
84303;SDS011;74469;52.520;16.998;2024-02-23T14:32:34;2.70;;;0.70;;
84303;SDS011;74469;52.520;16.998;2024-02-23T14:37:37;1.50;;;0.50;;
84303;SDS011;74469;52.520;16.998;2024-02-23T14:42:40;2.30;;;0.60;;
84303;SDS011;74469;52.520;16.998;2024-02-23T14:47:43;0.90;;;0.70;;
84303;SDS011;74469;52.520;16.998;2024-02-23T14:52:46;1.40;;;0.60;;
84303;SDS011;74469;52.520;16.998;2024-02-23T14:57:49;1.20;;;0.80;;
84303;SDS011;74469;52.520;16.998;2024-02-23T15:02:52;1.40;;;0.90;;
84303;SDS011;74469;52.520;16.998;2024-02-23T15:07:55;1.40;;;0.80;;
84303;SDS011;74469;52.520;16.998;2024-02-23T15:12:58;1.70;;;0.90;;
84303;SDS011;74469;52.520;16.998;2024-02-23T15:18:00;2.10;;;0.90;;
84303;SDS011;74469;52.520;16.998;2024-02-23T15:23:04;2.50;;;1.20;;
84303;SDS011;74469;52.520;16.998;2024-02-23T15:28:07;1.70;;;0.90;;
84303;SDS011;74469;52.520;16.998;2024-02-23T15:33:10;3.20;;;1.00;;
84303;SDS011;74469;52.520;16.998;2024-02-23T15:38:12;2.90;;;1.00;;
84303;SDS011;74469;52.520;16.998;2024-02-23T15:43:15;0.60;;;0.40;;
84303;SDS011;74469;52.520;16.998;2024-02-23T15:48:18;1.20;;;0.70;;
84303;SDS011;74469;52.520;16.998;2024-02-23T15:53:20;1.30;;;0.90;;
84303;SDS011;74469;52.520;16.998;2024-02-23T15:58:23;2.10;;;0.80;;
84303;SDS011;74469;52.520;16.998;2024-02-23T16:03:26;1.20;;;0.70;;
84303;SDS011;74469;52.520;16.998;2024-02-23T16:08:42;3.10;;;0.90;;
84303;SDS011;74469;52.520;16.998;2024-02-23T16:13:46;4.60;;;0.90;;
84303;SDS011;74469;52.520;16.998;2024-02-23T16:18:49;1.50;;;0.90;;
84303;SDS011;74469;52.520;16.998;2024-02-23T16:23:51;4.10;;;1.60;;
84303;SDS011;74469;52.520;16.998;2024-02-23T16:28:55;6.80;;;1.50;;
84303;SDS011;74469;52.520;16.998;2024-02-23T16:34:00;7.80;;;2.10;;
84303;SDS011;74469;52.520;16.998;2024-02-23T16:39:03;4.70;;;2.50;;
84303;SDS011;74469;52.520;16.998;2024-02-23T16:44:09;3.00;;;1.60;;
84303;SDS011;74469;52.520;16.998;2024-02-23T16:49:13;5.60;;;2.30;;
84303;SDS011;74469;52.520;16.998;2024-02-23T16:54:16;3.20;;;1.70;;
84303;SDS011;74469;52.520;16.998;2024-02-23T16:59:19;6.80;;;2.90;;
84303;SDS011;74469;52.520;16.998;2024-02-23T17:04:22;4.30;;;2.10;;
84303;SDS011;74469;52.520;16.998;2024-02-23T17:09:24;5.60;;;2.10;;
84303;SDS011;74469;52.520;16.998;2024-02-23T18:18:29;9.40;;;4.10;;
84303;SDS011;74469;52.520;16.998;2024-02-23T18:23:32;8.50;;;4.80;;
84303;SDS011;74469;52.520;16.998;2024-02-23T18:28:36;12.70;;;5.70;;
84303;SDS011;74469;52.520;16.998;2024-02-23T18:33:39;12.90;;;6.40;;
84303;SDS011;74469;52.520;16.998;2024-02-23T18:38:43;10.30;;;5.80;;
84303;SDS011;74469;52.520;16.998;2024-02-23T18:43:46;10.40;;;4.90;;
84303;SDS011;74469;52.520;16.998;2024-02-23T18:48:49;7.00;;;4.50;;
84303;SDS011;74469;52.520;16.998;2024-02-23T18:53:51;15.50;;;5.90;;
84303;SDS011;74469;52.520;16.998;2024-02-23T18:58:54;8.00;;;5.30;;
84303;SDS011;74469;52.520;16.998;2024-02-23T19:03:57;10.40;;;6.20;;
84303;SDS011;74469;52.520;16.998;2024-02-23T19:09:01;11.80;;;6.30;;
84303;SDS011;74469;52.520;16.998;2024-02-23T19:14:07;9.80;;;5.70;;
84303;SDS011;74469;52.520;16.998;2024-02-23T19:19:10;13.00;;;6.40;;
84303;SDS011;74469;52.520;16.998;2024-02-23T19:24:13;13.60;;;6.10;;
84303;SDS011;74469;52.520;16.998;2024-02-23T19:29:16;15.50;;;7.30;;
84303;SDS011;74469;52.520;16.998;2024-02-23T19:34:18;18.40;;;7.00;;
84303;SDS011;74469;52.520;16.998;2024-02-23T19:39:21;17.30;;;7.30;;
84303;SDS011;74469;52.520;16.998;2024-02-23T19:44:24;15.60;;;7.10;;
84303;SDS011;74469;52.520;16.998;2024-02-23T19:49:27;13.20;;;7.50;;
84303;SDS011;74469;52.520;16.998;2024-02-23T19:54:29;9.80;;;6.40;;
84303;SDS011;74469;52.520;16.998;2024-02-23T19:59:32;15.40;;;6.30;;
84303;SDS011;74469;52.520;16.998;2024-02-23T20:04:40;10.50;;;5.60;;
84303;SDS011;74469;52.520;16.998;2024-02-23T20:09:44;10.30;;;5.70;;
84303;SDS011;74469;52.520;16.998;2024-02-23T20:14:47;9.90;;;5.30;;
84303;SDS011;74469;52.520;16.998;2024-02-23T20:19:50;10.90;;;6.10;;
84303;SDS011;74469;52.520;16.998;2024-02-23T20:24:53;9.10;;;5.10;;
84303;SDS011;74469;52.520;16.998;2024-02-23T20:29:56;7.00;;;4.60;;
84303;SDS011;74469;52.520;16.998;2024-02-23T20:34:58;13.90;;;5.00;;
84303;SDS011;74469;52.520;16.998;2024-02-23T20:40:01;7.00;;;4.10;;
84303;SDS011;74469;52.520;16.998;2024-02-23T20:45:05;9.60;;;4.00;;
84303;SDS011;74469;52.520;16.998;2024-02-23T20:50:10;9.10;;;4.40;;
84303;SDS011;74469;52.520;16.998;2024-02-23T20:55:14;8.40;;;3.60;;
84303;SDS011;74469;52.520;16.998;2024-02-23T21:00:17;8.80;;;5.90;;
84303;SDS011;74469;52.520;16.998;2024-02-23T21:05:20;16.90;;;6.10;;
84303;SDS011;74469;52.520;16.998;2024-02-23T21:10:22;17.20;;;8.30;;
84303;SDS011;74469;52.520;16.998;2024-02-23T21:15:25;10.10;;;5.30;;
84303;SDS011;74469;52.520;16.998;2024-02-23T21:20:28;11.10;;;6.00;;
84303;SDS011;74469;52.520;16.998;2024-02-23T21:25:31;11.90;;;3.40;;
84303;SDS011;74469;52.520;16.998;2024-02-23T21:30:33;6.50;;;3.50;;
84303;SDS011;74469;52.520;16.998;2024-02-23T21:35:36;4.50;;;2.00;;
84303;SDS011;74469;52.520;16.998;2024-02-23T21:40:39;5.50;;;3.30;;
84303;SDS011;74469;52.520;16.998;2024-02-23T21:45:42;4.00;;;2.30;;
84303;SDS011;74469;52.520;16.998;2024-02-23T21:50:45;3.70;;;2.60;;
84303;SDS011;74469;52.520;16.998;2024-02-23T21:55:48;3.30;;;1.40;;
84303;SDS011;74469;52.520;16.998;2024-02-23T22:00:50;3.80;;;1.90;;
84303;SDS011;74469;52.520;16.998;2024-02-23T22:05:55;3.00;;;1.70;;
84303;SDS011;74469;52.520;16.998;2024-02-23T22:10:58;3.20;;;1.80;;
84303;SDS011;74469;52.520;16.998;2024-02-23T22:16:01;1.50;;;1.00;;
84303;SDS011;74469;52.520;16.998;2024-02-23T22:21:03;2.50;;;1.70;;
84303;SDS011;74469;52.520;16.998;2024-02-23T22:26:06;3.10;;;1.70;;
84303;SDS011;74469;52.520;16.998;2024-02-23T22:31:09;1.00;;;0.60;;
84303;SDS011;74469;52.520;16.998;2024-02-23T22:36:12;2.00;;;0.80;;
84303;SDS011;74469;52.520;16.998;2024-02-23T22:41:14;2.40;;;0.90;;
84303;SDS011;74469;52.520;16.998;2024-02-23T22:46:17;1.80;;;0.70;;
84303;SDS011;74469;52.520;16.998;2024-02-23T22:51:20;1.00;;;0.80;;
84303;SDS011;74469;52.520;16.998;2024-02-23T22:56:23;0.90;;;0.50;;
84303;SDS011;74469;52.520;16.998;2024-02-23T23:01:28;2.30;;;0.60;;
84303;SDS011;74469;52.520;16.998;2024-02-23T23:06:30;0.50;;;0.50;;
84303;SDS011;74469;52.520;16.998;2024-02-23T23:11:34;0.70;;;0.40;;
84303;SDS011;74469;52.520;16.998;2024-02-23T23:16:38;0.50;;;0.40;;
84303;SDS011;74469;52.520;16.998;2024-02-23T23:21:40;0.80;;;0.50;;
84303;SDS011;74469;52.520;16.998;2024-02-23T23:26:43;0.80;;;0.30;;
84303;SDS011;74469;52.520;16.998;2024-02-23T23:31:47;1.00;;;0.30;;
84303;SDS011;74469;52.520;16.998;2024-02-23T23:36:50;0.30;;;0.30;;
84303;SDS011;74469;52.520;16.998;2024-02-23T23:41:54;1.30;;;0.40;;
84303;SDS011;74469;52.520;16.998;2024-02-23T23:46:56;1.20;;;0.30;;
84303;SDS011;74469;52.520;16.998;2024-02-23T23:51:59;0.60;;;0.20;;
84303;SDS011;74469;52.520;16.998;2024-02-23T23:57:02;0.30;;;0.30;;
